Norton, KS

1:08 PM CST on February 06, 2016 (GMT -0600)
NonFedAWOS | | Change Station
CLOSE
Current Station
Personal Weather Station
Location: Norton, KS
Elevation: 2382 ft
Nearby Weather Stations

Elev 2382 ft 39.85 °N, 99.89 °W | Updated 28 minutes ago

Clear
Clear
34 °F
Feels Like 27 °F
N
9
Wind Variable Wind from SW
Gusts 0.0 mph

Today
High -- | Low -- °F
--% Chance of Precip.
Yesterday
High -- | Low -- °F
Precip. -- in
Pressure 30.28 in
Visibility 10.0 miles
Clouds Clear
Windchill 27 °F
Dew Point 18 °F
Humidity 51%
Rainfall in
Snow Depth Not available.
7:43 AM 6:04 PM
Waning Crescent, 4% visible
METAR KHLC 061853Z AUTO 24012KT 10SM CLR 04/M05 A3022 RMK AO2 SLP253 T00441050
Pressure 30.28 in
Visibility 10.0 miles
Clouds Clear
Windchill 27 °F
Dew Point 18 °F
Humidity 51%
Rainfall in
Snow Depth Not available.
7:43 AM 6:04 PM
Waning Crescent, 4% visible
METAR KHLC 061853Z AUTO 24012KT 10SM CLR 04/M05 A3022 RMK AO2 SLP253 T00441050

10-Day Weather Forecast

Almanac

Astronomy

Feb. 06, 2016 Rise Set
Actual Time
Civil Twilight
Nautical Twilight
Astronomical Twilight
Moon
Length of Visible Light
Length of Day
Tomorrow will be .
, % of the Moon is Illuminated

Today's Extremes

State Highs State Lows

Community

WunderPhotos

Upload Photos

1,891,033 photos uploaded!

WunderBlog® & News

Nearby

Air Quality

  Air Quality AQ Index Pollutant
Not available.

Snow Depth

Station Depth Elevation

Earthquake Activity

City Distance Mag. Time & Date
Minimum magnitude displayed is 2.5.

Coastal Water Temperatures

Place Temperature

Stations

Nearby Weather Stations

Station Location Temp. Windchill Dew Point Humidity Wind Precip. Elev Updated Type
                   

Watches & Warnings

There are currently no watches in effect.